createdAt,value
2022-11-14T00:01:47.684Z,74.67
2022-11-14T00:04:14.867Z,73.90
2022-11-14T00:06:41.954Z,69.90
2022-11-14T00:09:29.830Z,79.50
2022-11-14T00:11:57.055Z,79.60
2022-11-14T00:14:24.855Z,68.37
2022-11-14T00:16:51.926Z,80.77
2022-11-14T00:19:19.074Z,72.47
2022-11-14T00:21:46.473Z,69.87
2022-11-14T00:24:13.867Z,70.30
2022-11-14T00:26:41.166Z,72.53
2022-11-14T00:29:12.611Z,81.83
2022-11-14T00:31:48.203Z,78.00
2022-11-14T00:34:15.546Z,72.40
2022-11-14T00:36:42.609Z,73.13
2022-11-14T00:39:17.638Z,74.17
2022-11-14T00:41:47.137Z,79.77
2022-11-14T00:44:19.430Z,73.87
2022-11-14T00:46:50.045Z,79.20
2022-11-14T00:49:20.166Z,81.87
2022-11-14T00:51:57.872Z,74.27
2022-11-14T00:54:28.346Z,86.97
2022-11-14T00:56:57.994Z,87.67
2022-11-14T00:59:25.328Z,88.90
2022-11-14T01:01:58.289Z,86.00
2022-11-14T01:04:28.371Z,91.63
2022-11-14T01:07:07.846Z,101.77
2022-11-14T01:09:34.886Z,96.27
2022-11-14T01:12:07.890Z,86.10
2022-11-14T01:14:42.888Z,88.13
2022-11-14T01:17:10.214Z,94.33
2022-11-14T01:19:41.097Z,88.47
2022-11-14T01:22:08.548Z,100.40
2022-11-14T01:24:36.383Z,94.37
2022-11-14T01:27:03.792Z,87.70
2022-11-14T01:29:30.909Z,108.67
2022-11-14T01:32:08.231Z,112.50
2022-11-14T01:34:35.253Z,105.23
2022-11-14T01:37:02.306Z,110.80
2022-11-14T01:39:29.352Z,115.37
2022-11-14T01:41:56.653Z,110.13
2022-11-14T01:44:52.877Z,102.93
2022-11-14T01:47:30.437Z,98.17
2022-11-14T01:50:05.553Z,105.30
2022-11-14T01:52:49.588Z,112.13
2022-11-14T01:55:17.112Z,117.33
2022-11-14T01:58:06.879Z,121.27
2022-11-14T02:00:34.235Z,119.40
2022-11-14T02:03:01.800Z,108.77
2022-11-14T02:05:30.030Z,119.93
2022-11-14T02:07:57.919Z,120.73
2022-11-14T02:10:25.359Z,123.73
2022-11-14T02:12:55.119Z,109.13
2022-11-14T02:15:28.043Z,115.53
2022-11-14T02:17:55.430Z,109.17
2022-11-14T02:20:32.890Z,106.70
2022-11-14T02:23:00.094Z,107.37
2022-11-14T02:25:32.734Z,110.03
2022-11-14T02:28:01.167Z,101.60
2022-11-14T02:30:28.430Z,104.40
2022-11-14T02:33:11.817Z,111.93
2022-11-14T02:35:39.320Z,115.80
2022-11-14T02:38:07.014Z,114.33
2022-11-14T02:40:37.691Z,107.93
2022-11-14T02:43:05.426Z,108.53
2022-11-14T02:45:32.582Z,102.80
2022-11-14T02:48:02.164Z,101.37
2022-11-14T02:50:51.403Z,122.13
2022-11-14T02:53:30.972Z,98.67
2022-11-14T02:55:58.148Z,103.47
2022-11-14T02:58:31.164Z,100.57
2022-11-14T03:01:20.345Z,111.43
2022-11-14T03:03:55.216Z,123.00
2022-11-14T03:06:22.590Z,100.30
2022-11-14T03:08:49.913Z,106.83
2022-11-14T03:11:25.533Z,117.53
2022-11-14T03:13:55.928Z,116.70
2022-11-14T03:16:32.011Z,117.57
2022-11-14T03:18:59.277Z,118.00
2022-11-14T03:21:27.039Z,146.00
2022-11-14T03:24:14.823Z,127.13
2022-11-14T03:26:47.600Z,134.80
2022-11-14T03:29:14.724Z,121.67
2022-11-14T03:31:41.931Z,120.03
2022-11-14T03:34:10.863Z,110.20
2022-11-14T03:36:41.194Z,123.73
2022-11-14T03:39:09.241Z,133.30
2022-11-14T03:41:36.350Z,140.43
2022-11-14T03:44:03.826Z,146.63
2022-11-14T03:46:30.839Z,136.33
2022-11-14T03:49:02.457Z,124.07
2022-11-14T03:51:29.913Z,134.57
2022-11-14T03:53:56.991Z,126.90
2022-11-14T03:56:24.315Z,113.07
2022-11-14T03:58:51.653Z,120.93
2022-11-14T04:01:21.639Z,124.77
2022-11-14T04:03:48.928Z,129.70
2022-11-14T04:06:17.993Z,129.00
2022-11-14T04:08:45.216Z,127.93
2022-11-14T04:11:15.173Z,142.30
2022-11-14T04:13:42.571Z,125.53
2022-11-14T04:16:09.605Z,137.03
2022-11-14T04:18:36.625Z,153.90
2022-11-14T04:21:04.430Z,109.23
2022-11-14T04:23:31.489Z,122.60
2022-11-14T04:25:58.519Z,129.83
2022-11-14T04:28:25.889Z,136.73
2022-11-14T04:30:54.025Z,121.87
2022-11-14T04:33:21.053Z,125.93
2022-11-14T04:35:48.719Z,136.90
2022-11-14T04:38:15.708Z,126.97
2022-11-14T04:40:53.612Z,139.50
2022-11-14T04:43:21.716Z,126.23
2022-11-14T04:45:48.775Z,128.70
2022-11-14T04:48:15.902Z,140.30
2022-11-14T04:50:42.936Z,143.83
2022-11-14T04:53:10.050Z,159.23
2022-11-14T04:55:37.087Z,159.27
2022-11-14T04:58:04.154Z,135.80
2022-11-14T05:00:32.450Z,125.37
2022-11-14T05:03:00.190Z,144.70
2022-11-14T05:05:27.607Z,140.43
2022-11-14T05:07:55.347Z,160.10
2022-11-14T05:10:25.320Z,118.33
2022-11-14T05:12:58.450Z,127.83
2022-11-14T05:15:26.174Z,149.67
2022-11-14T05:17:56.044Z,102.07
2022-11-14T05:20:23.357Z,153.87
2022-11-14T05:22:58.377Z,146.40
2022-11-14T05:25:29.119Z,139.77
2022-11-14T05:28:01.922Z,133.53
2022-11-14T05:30:28.888Z,145.60
2022-11-14T05:32:58.363Z,163.97
2022-11-14T05:35:25.468Z,149.53
2022-11-14T05:37:58.791Z,141.40
2022-11-14T05:40:37.750Z,120.13
2022-11-14T05:43:23.896Z,126.23
2022-11-14T05:45:51.646Z,162.83
2022-11-14T05:48:18.928Z,147.37
2022-11-14T05:50:46.144Z,121.83
2022-11-14T05:53:13.419Z,130.70
2022-11-14T05:55:45.026Z,119.30
2022-11-14T05:58:12.562Z,106.00
2022-11-14T06:00:46.577Z,124.37
2022-11-14T06:03:18.237Z,102.97
2022-11-14T06:05:45.376Z,133.30
2022-11-14T06:08:13.616Z,103.00
2022-11-14T06:10:44.493Z,114.30
2022-11-14T06:13:11.494Z,131.80
2022-11-14T06:15:38.760Z,121.67
2022-11-14T06:18:06.050Z,122.30
2022-11-14T06:20:33.145Z,123.97
2022-11-14T06:23:03.161Z,115.77
2022-11-14T06:25:30.462Z,128.97
2022-11-14T06:27:59.581Z,117.70
2022-11-14T06:30:27.257Z,100.73
2022-11-14T06:33:08.693Z,116.23
2022-11-14T06:35:37.097Z,108.43
2022-11-14T06:38:52.268Z,114.23
2022-11-14T06:41:22.756Z,116.57
2022-11-14T06:43:54.135Z,111.97
2022-11-14T06:46:24.259Z,109.03
2022-11-14T06:48:52.592Z,115.17
2022-11-14T06:51:22.511Z,121.03
2022-11-14T06:53:49.520Z,110.13
2022-11-14T06:56:20.639Z,128.87
2022-11-14T06:58:50.206Z,130.23
2022-11-14T07:01:26.019Z,111.90
2022-11-14T07:04:05.454Z,121.30
2022-11-14T07:06:40.203Z,117.60
2022-11-14T07:09:07.304Z,110.43
2022-11-14T07:11:38.613Z,103.47
2022-11-14T07:14:06.800Z,124.70
2022-11-14T07:16:35.830Z,94.47
2022-11-14T07:19:09.050Z,94.37
2022-11-14T07:21:37.542Z,106.97
2022-11-14T07:24:08.161Z,102.20
2022-11-14T07:26:35.276Z,111.93
2022-11-14T07:29:03.448Z,109.07
2022-11-14T07:31:35.027Z,108.07
2022-11-14T07:34:02.168Z,101.90
2022-11-14T07:36:29.254Z,95.50
2022-11-14T07:38:56.480Z,106.10
2022-11-14T07:41:26.434Z,96.77
2022-11-14T07:43:53.845Z,98.83
2022-11-14T07:46:29.271Z,97.30
2022-11-14T07:48:56.233Z,113.83
2022-11-14T07:51:23.272Z,108.63
2022-11-14T07:53:55.736Z,111.67
2022-11-14T07:56:25.849Z,110.97
2022-11-14T07:58:52.884Z,94.27
2022-11-14T08:01:20.050Z,107.57
2022-11-14T08:03:47.083Z,107.80
2022-11-14T08:06:18.825Z,94.63
2022-11-14T08:08:48.597Z,102.13
2022-11-14T08:11:31.776Z,97.30
2022-11-14T08:14:02.218Z,97.70
2022-11-14T08:16:29.262Z,98.97
2022-11-14T08:18:56.245Z,98.10
2022-11-14T08:21:23.535Z,96.97
2022-11-14T08:23:50.621Z,84.87
2022-11-14T08:26:17.745Z,97.30
2022-11-14T08:28:45.953Z,96.20
2022-11-14T08:31:13.682Z,102.60
2022-11-14T08:33:40.843Z,93.40
2022-11-14T08:36:08.440Z,91.67
2022-11-14T08:38:35.842Z,85.37
2022-11-14T08:41:04.062Z,87.70
2022-11-14T08:43:34.083Z,93.03
2022-11-14T08:46:04.528Z,100.33
2022-11-14T08:48:33.569Z,98.00
2022-11-14T08:51:07.745Z,89.43
2022-11-14T08:53:35.457Z,85.20
2022-11-14T08:56:03.038Z,87.77
2022-11-14T08:58:32.630Z,84.10
2022-11-14T09:01:07.177Z,88.93
2022-11-14T09:03:34.949Z,83.30
2022-11-14T09:06:03.697Z,80.40
2022-11-14T09:08:33.977Z,88.47
2022-11-14T09:11:05.592Z,80.07
2022-11-14T09:13:35.162Z,85.53
2022-11-14T09:16:02.915Z,76.67
2022-11-14T09:18:31.876Z,79.50
2022-11-14T09:21:09.193Z,74.73
2022-11-14T09:23:36.862Z,71.57
2022-11-14T09:26:09.805Z,73.50
2022-11-14T09:28:37.796Z,74.67
2022-11-14T09:31:09.979Z,80.57
2022-11-14T09:33:40.376Z,71.90
2022-11-14T09:36:11.247Z,69.30
2022-11-14T09:38:38.933Z,67.20
2022-11-14T09:41:08.681Z,70.17
2022-11-14T09:44:39.004Z,77.90
2022-11-14T09:47:20.526Z,70.10
2022-11-14T09:49:54.848Z,67.13
2022-11-14T09:52:58.900Z,65.33
2022-11-14T09:55:37.218Z,66.30
2022-11-14T09:58:05.454Z,67.80
2022-11-14T10:00:56.798Z,68.00
2022-11-14T10:03:58.896Z,66.63
2022-11-14T10:06:30.483Z,62.80
2022-11-14T10:09:44.668Z,60.50
2022-11-14T10:12:23.695Z,62.70
2022-11-14T10:15:15.150Z,63.47
2022-11-14T10:18:33.369Z,65.47
2022-11-14T10:21:32.986Z,57.43
2022-11-14T10:24:45.993Z,60.13
2022-11-14T10:27:58.497Z,57.90
2022-11-14T10:31:10.114Z,62.50
2022-11-14T10:34:26.407Z,57.57
2022-11-14T10:37:33.281Z,57.40
2022-11-14T10:40:33.747Z,59.37
2022-11-14T10:43:35.361Z,59.43
2022-11-14T10:46:32.843Z,53.93
2022-11-14T10:49:13.871Z,63.40
2022-11-14T10:51:46.831Z,60.57
2022-11-14T10:54:32.960Z,54.10
2022-11-14T10:57:00.065Z,56.33
2022-11-14T10:59:29.611Z,55.33
2022-11-14T11:01:58.741Z,54.97
2022-11-14T11:04:43.669Z,58.07
2022-11-14T11:07:30.596Z,62.03
2022-11-14T11:10:21.069Z,55.37
2022-11-14T11:12:52.685Z,51.90
2022-11-14T11:15:26.312Z,56.43
2022-11-14T11:18:05.070Z,52.63
2022-11-14T11:20:38.501Z,61.67
2022-11-14T11:23:11.502Z,62.07
2022-11-14T11:25:40.518Z,53.80
2022-11-14T11:28:21.569Z,54.50
2022-11-14T11:31:07.639Z,51.67
2022-11-14T11:33:38.193Z,52.23
2022-11-14T11:36:18.157Z,55.47
2022-11-14T11:38:47.595Z,46.87
2022-11-14T11:42:07.685Z,48.57
2022-11-14T11:44:18.778Z,58.70
2022-11-14T11:47:01.120Z,57.30
2022-11-14T11:49:52.014Z,53.97
2022-11-14T11:53:19.554Z,47.70
2022-11-14T11:55:59.257Z,52.20
2022-11-14T11:58:49.820Z,53.03
2022-11-14T12:01:17.881Z,45.03
2022-11-14T12:03:54.197Z,49.07
2022-11-14T12:06:27.196Z,53.27
2022-11-14T12:10:03.510Z,54.60
2022-11-14T12:12:42.972Z,46.43
2022-11-14T12:15:51.406Z,49.70
2022-11-14T12:18:49.070Z,49.00
2022-11-14T12:21:46.844Z,48.07
2022-11-14T12:25:38.209Z,48.97
2022-11-14T12:28:40.561Z,46.13
2022-11-14T12:31:16.912Z,45.00
2022-11-14T12:34:04.066Z,43.00
2022-11-14T12:36:34.952Z,45.37
2022-11-14T12:39:03.280Z,40.97
2022-11-14T12:41:39.006Z,40.17
2022-11-14T12:44:26.928Z,44.60
2022-11-14T12:47:06.223Z,43.83
2022-11-14T12:49:48.289Z,41.10
2022-11-14T12:52:52.736Z,41.33
2022-11-14T12:55:31.607Z,39.77
2022-11-14T12:58:42.755Z,40.10
2022-11-14T13:01:31.936Z,35.63
2022-11-14T13:05:04.280Z,42.50
2022-11-14T13:08:31.186Z,35.77
2022-11-14T13:10:58.698Z,37.93
2022-11-14T13:13:44.703Z,38.10
2022-11-14T13:16:51.091Z,40.23
2022-11-14T13:19:40.788Z,31.23
2022-11-14T13:22:37.350Z,35.80
2022-11-14T13:25:20.759Z,35.23
2022-11-14T13:31:16.898Z,37.97
2022-11-14T13:34:38.889Z,32.73
2022-11-14T13:37:59.903Z,33.70
2022-11-14T13:40:44.468Z,34.57
2022-11-14T13:43:42.685Z,35.47
2022-11-14T13:47:07.475Z,37.90
2022-11-14T13:50:13.865Z,34.50
2022-11-14T13:52:48.915Z,35.90
2022-11-14T13:55:50.075Z,35.57
2022-11-14T13:59:03.228Z,33.03
2022-11-14T14:01:30.115Z,33.63
2022-11-14T14:04:49.270Z,32.53
2022-11-14T14:07:37.508Z,36.90
2022-11-14T14:10:41.568Z,33.03
2022-11-14T14:14:03.666Z,33.73
2022-11-14T14:16:49.958Z,37.30
2022-11-14T14:20:19.732Z,34.37
2022-11-14T14:23:11.053Z,30.87
2022-11-14T14:26:27.545Z,34.40
2022-11-14T14:29:58.188Z,35.37
2022-11-14T14:32:25.563Z,34.93
2022-11-14T14:34:56.939Z,39.03
2022-11-14T14:37:28.697Z,35.00
2022-11-14T14:40:22.359Z,38.67
2022-11-14T14:42:49.404Z,36.77
2022-11-14T14:45:24.057Z,37.80
2022-11-14T14:48:15.652Z,38.80
2022-11-14T14:50:58.715Z,35.17
2022-11-14T14:53:35.802Z,37.67
2022-11-14T14:56:16.997Z,38.20
2022-11-14T14:58:44.360Z,40.37
2022-11-14T15:01:23.313Z,34.33
2022-11-14T15:04:07.850Z,39.60
2022-11-14T15:06:39.268Z,37.47
2022-11-14T15:09:28.042Z,42.80
2022-11-14T15:11:59.018Z,43.20
2022-11-14T15:14:36.945Z,41.00
2022-11-14T15:17:05.055Z,41.63
2022-11-14T15:19:45.013Z,35.57
2022-11-14T15:22:14.605Z,41.87
2022-11-14T15:24:42.181Z,36.53
2022-11-14T15:27:19.981Z,39.20
2022-11-14T15:30:07.525Z,41.30
2022-11-14T15:33:34.211Z,37.43
2022-11-14T15:36:27.321Z,38.33
2022-11-14T15:39:29.389Z,41.43
2022-11-14T15:42:21.013Z,46.43
2022-11-14T15:44:54.569Z,42.33
2022-11-14T15:47:50.349Z,48.10
2022-11-14T15:50:37.579Z,39.17
2022-11-14T15:53:27.805Z,44.33
2022-11-14T15:55:54.985Z,42.03
2022-11-14T15:58:28.346Z,42.90
2022-11-14T16:00:56.632Z,41.30
2022-11-14T16:03:24.292Z,43.57
2022-11-14T16:05:51.253Z,39.07
2022-11-14T16:08:18.265Z,45.33
2022-11-14T16:10:45.533Z,48.20
2022-11-14T16:13:12.658Z,43.43
2022-11-14T16:15:39.779Z,44.33
2022-11-14T16:18:07.201Z,42.57
2022-11-14T16:20:37.899Z,46.83
2022-11-14T16:23:05.402Z,45.43
2022-11-14T16:25:33.013Z,44.37
2022-11-14T16:27:59.993Z,48.90
2022-11-14T16:30:28.403Z,50.67
2022-11-14T16:32:55.375Z,45.87
2022-11-14T16:35:26.690Z,46.90
2022-11-14T16:37:56.641Z,43.13
2022-11-14T16:40:27.757Z,44.33
2022-11-14T16:42:57.690Z,40.93
2022-11-14T16:45:26.613Z,44.33
2022-11-14T16:47:53.744Z,40.53
2022-11-14T16:50:20.838Z,43.37
2022-11-14T16:52:47.932Z,45.17
2022-11-14T16:55:15.060Z,49.77
2022-11-14T16:57:42.154Z,48.10
2022-11-14T17:00:14.556Z,44.13
2022-11-14T17:02:42.044Z,44.57
2022-11-14T17:05:09.718Z,38.20
2022-11-14T17:07:36.945Z,48.53
2022-11-14T17:10:06.198Z,46.37
2022-11-14T17:12:36.753Z,45.07
2022-11-14T17:15:04.147Z,42.40
2022-11-14T17:17:31.496Z,47.23
2022-11-14T17:19:58.662Z,46.13
2022-11-14T17:22:25.702Z,47.00
2022-11-14T17:24:52.657Z,44.03
2022-11-14T17:27:19.898Z,49.80
2022-11-14T17:29:46.917Z,46.20
2022-11-14T17:32:13.891Z,42.40
2022-11-14T17:34:40.927Z,42.47
2022-11-14T17:37:07.955Z,37.53
2022-11-14T17:39:35.097Z,54.60
2022-11-14T17:42:02.140Z,45.60
2022-11-14T17:44:29.104Z,48.07
2022-11-14T17:46:56.076Z,50.07
2022-11-14T17:49:23.060Z,47.33
2022-11-14T17:51:50.112Z,43.80
2022-11-14T17:54:17.090Z,42.93
2022-11-14T17:56:48.517Z,43.60
2022-11-14T17:59:16.879Z,48.20
2022-11-14T18:01:43.953Z,47.30
2022-11-14T18:04:12.017Z,44.70
2022-11-14T18:06:38.967Z,51.20
2022-11-14T18:09:08.125Z,48.23
2022-11-14T18:11:38.410Z,50.93
2022-11-14T18:14:05.416Z,44.60
2022-11-14T18:16:57.451Z,50.40
2022-11-14T18:19:19.388Z,48.97
2022-11-14T18:21:52.043Z,44.23
2022-11-14T18:24:21.519Z,52.23
2022-11-14T18:26:48.501Z,52.97
2022-11-14T18:29:15.717Z,54.93
2022-11-14T18:31:42.726Z,46.93
2022-11-14T18:34:09.732Z,50.93
2022-11-14T18:36:37.065Z,49.47
2022-11-14T18:39:04.231Z,49.30
2022-11-14T18:41:31.290Z,47.73
2022-11-14T18:43:58.370Z,57.73
2022-11-14T18:46:26.579Z,46.20
2022-11-14T18:48:57.183Z,57.23
2022-11-14T18:51:29.793Z,45.03
2022-11-14T18:53:59.269Z,52.77
2022-11-14T18:56:26.944Z,56.03
2022-11-14T18:58:56.417Z,52.47
2022-11-14T19:01:29.277Z,52.97
2022-11-14T19:04:00.687Z,51.77
2022-11-14T19:06:29.602Z,53.47
2022-11-14T19:09:11.081Z,54.30
2022-11-14T19:11:57.613Z,56.60
2022-11-14T19:14:24.706Z,51.03
2022-11-14T19:16:51.679Z,58.87
2022-11-14T19:19:18.666Z,60.63
2022-11-14T19:21:50.379Z,64.87
2022-11-14T19:24:18.228Z,59.67
2022-11-14T19:26:45.609Z,69.77
2022-11-14T19:29:15.515Z,59.17
2022-11-14T19:31:43.366Z,52.90
2022-11-14T19:34:11.202Z,67.77
2022-11-14T19:36:58.695Z,57.03
2022-11-14T19:39:25.548Z,66.07
2022-11-14T19:41:52.591Z,69.37
2022-11-14T19:44:19.791Z,62.53
2022-11-14T19:46:48.055Z,60.00
2022-11-14T19:49:15.736Z,65.60
2022-11-14T19:51:43.004Z,60.17
2022-11-14T19:54:11.194Z,43.77
2022-11-14T19:56:38.321Z,51.47
2022-11-14T19:59:09.646Z,71.23
2022-11-14T20:01:41.993Z,48.83
2022-11-14T20:04:13.063Z,55.07
2022-11-14T20:06:41.551Z,52.83
2022-11-14T20:09:11.050Z,57.43
2022-11-14T20:11:38.485Z,70.40
2022-11-14T20:14:06.123Z,77.63
2022-11-14T20:16:36.566Z,61.60
2022-11-14T20:19:04.751Z,69.77
2022-11-14T20:21:34.346Z,63.03
2022-11-14T20:24:01.761Z,76.70
2022-11-14T20:26:28.839Z,55.60
2022-11-14T20:28:55.879Z,86.47
2022-11-14T20:31:28.085Z,100.13
2022-11-14T20:33:56.644Z,71.73
2022-11-14T20:36:31.936Z,68.10
2022-11-14T20:39:02.396Z,71.67
2022-11-14T20:41:29.451Z,55.33
2022-11-14T20:43:56.499Z,60.47
2022-11-14T20:46:23.551Z,79.27
2022-11-14T20:48:50.670Z,85.00
2022-11-14T20:51:24.743Z,72.73
2022-11-14T20:53:55.118Z,87.77
2022-11-14T20:56:23.308Z,73.60
2022-11-14T20:58:54.121Z,77.40
2022-11-14T21:01:21.474Z,77.67
2022-11-14T21:03:49.121Z,95.50
2022-11-14T21:06:17.001Z,84.03
2022-11-14T21:08:44.533Z,98.63
2022-11-14T21:11:17.999Z,74.97
2022-11-14T21:13:57.260Z,88.30
2022-11-14T21:16:38.597Z,96.93
2022-11-14T21:19:07.237Z,93.80
2022-11-14T21:21:37.382Z,86.67
2022-11-14T21:24:05.322Z,88.90
2022-11-14T21:26:38.123Z,55.63
2022-11-14T21:29:12.433Z,84.70
2022-11-14T21:31:45.841Z,90.80
2022-11-14T21:34:16.698Z,84.70
2022-11-14T21:36:46.107Z,80.53
2022-11-14T21:39:16.342Z,69.03
2022-11-14T21:41:45.596Z,80.20
2022-11-14T21:44:16.382Z,88.63
2022-11-14T21:46:47.024Z,84.43
2022-11-14T21:49:14.316Z,69.87
2022-11-14T21:51:41.432Z,54.33
2022-11-14T21:54:10.080Z,62.90
2022-11-14T21:56:37.550Z,72.73
2022-11-14T21:59:16.382Z,81.47
2022-11-14T22:02:07.713Z,59.63
2022-11-14T22:04:36.420Z,54.83
2022-11-14T22:07:07.107Z,92.30
2022-11-14T22:09:36.360Z,74.37
2022-11-14T22:12:07.543Z,86.17
2022-11-14T22:14:34.531Z,69.80
2022-11-14T22:17:01.503Z,81.30
2022-11-14T22:19:28.491Z,81.50
2022-11-14T22:21:55.551Z,59.30
2022-11-14T22:24:23.624Z,87.13
2022-11-14T22:26:50.628Z,66.40
2022-11-14T22:29:18.136Z,69.10
2022-11-14T22:31:45.178Z,66.07
2022-11-14T22:34:12.466Z,87.77
2022-11-14T22:36:39.488Z,87.10
2022-11-14T22:39:06.516Z,82.80
2022-11-14T22:41:33.946Z,76.53
2022-11-14T22:44:01.941Z,82.87
2022-11-14T22:46:29.749Z,65.70
2022-11-14T22:48:58.118Z,79.07
2022-11-14T22:51:28.049Z,74.77
2022-11-14T22:53:57.988Z,76.93
2022-11-14T22:56:29.318Z,76.10
2022-11-14T22:58:59.134Z,91.60
2022-11-14T23:01:32.556Z,76.53
2022-11-14T23:04:04.074Z,78.30
2022-11-14T23:06:33.995Z,76.33
2022-11-14T23:09:02.929Z,78.63
2022-11-14T23:11:33.146Z,75.33
2022-11-14T23:14:01.715Z,77.70
2022-11-14T23:16:33.477Z,62.17
2022-11-14T23:19:03.988Z,67.90
2022-11-14T23:21:35.880Z,87.57
2022-11-14T23:24:11.321Z,61.87
2022-11-14T23:26:38.280Z,83.17
2022-11-14T23:29:05.297Z,82.97
2022-11-14T23:31:32.323Z,66.03
2022-11-14T23:33:59.287Z,77.03
2022-11-14T23:36:26.299Z,102.07
2022-11-14T23:38:53.936Z,83.57
2022-11-14T23:41:27.279Z,77.93
2022-11-14T23:43:54.228Z,96.37
2022-11-14T23:46:21.526Z,81.40
2022-11-14T23:48:48.742Z,69.23
2022-11-14T23:51:15.842Z,86.83
2022-11-14T23:53:43.179Z,70.30
2022-11-14T23:56:13.615Z,68.67
2022-11-14T23:58:41.577Z,85.13
